Champlain, New York
Current Conditions -  °F | °C
As of 4:55 AM on Saturday 29 Nov 2014 (Local Time) from KFSO Reporting Station
Light Snow Light Snow  
Wind Chill: 17°   Ceiling: 2900
Heat Index: 17°   Visibility: 5mi
Dew Point: 14°   Wind: 3mph
Humidity: 89%   Direction: 130°SE
Pressure: 30.23"   Gusts: NA
Location:  44.99°N, 73.45°W
Report Text: KFSO 290955Z AUTO 13003KT 5SM -SN SCT019 BKN029 OVC036 M08/M10 A3023 RMK AO2 T10851100
Loading
Personal Weather Stations






























Interactive Weather Map New forecast layout! Learn more

10-Day Weather Forecast

Advertisements
Track Severe Weather on mobile